Time;durP1;ratioP1;P1;durP2;ratioP2;P2;SDS_P1;SDS_P2;PMS_P1;PMS_P2;Temp;Humidity;BMP_temperature;BMP_pressure;BME280_temperature;BME280_humidity;BME280_pressure;Samples;Min_cycle;Max_cycle;Signal;HPM_P1;HPM_P2
2021/07/06 00:01:55;;;;;;;5.03;3.72;;;24.00;75.60;;;;;;5109877;28;20024;-92
2021/07/06 00:04:22;;;;;;;4.03;3.58;;;24.00;75.70;;;;;;5116488;28;20031;-92
2021/07/06 00:06:47;;;;;;;4.93;3.70;;;23.90;75.60;;;;;;5131922;28;20045;-92
2021/07/06 00:09:13;;;;;;;4.72;3.70;;;23.90;75.80;;;;;;5132871;28;20020;-88
2021/07/06 00:11:39;;;;;;;5.57;3.75;;;23.90;76.10;;;;;;5120551;28;20023;-88
2021/07/06 00:14:05;;;;;;;5.25;4.03;;;23.80;76.30;;;;;;5118098;28;20066;-88
2021/07/06 00:16:31;;;;;;;4.00;3.60;;;23.80;76.40;;;;;;5115477;28;20031;-92
2021/07/06 00:18:59;;;;;;;5.28;3.85;;;23.80;76.50;;;;;;5118417;28;20037;-92
2021/07/06 00:21:25;;;;;;;4.75;4.00;;;23.80;77.30;;;;;;5118304;28;20127;-92
2021/07/06 00:23:51;;;;;;;4.05;3.50;;;23.80;76.70;;;;;;5118446;28;20497;-92
2021/07/06 00:26:18;;;;;;;4.20;3.70;;;23.80;76.70;;;;;;5099851;28;20024;-92
2021/07/06 00:28:44;;;;;;;5.20;3.97;;;23.80;76.80;;;;;;5117867;28;20030;-92
2021/07/06 00:31:11;;;;;;;6.13;4.00;;;23.80;76.90;;;;;;5103222;28;20031;-92
2021/07/06 00:33:36;;;;;;;5.43;3.70;;;23.80;76.90;;;;;;5130564;28;20458;-91
2021/07/06 00:36:02;;;;;;;4.68;3.70;;;23.80;76.90;;;;;;5100160;28;20038;-92
2021/07/06 00:38:29;;;;;;;3.90;3.10;;;23.80;76.90;;;;;;5099930;28;20059;-92
2021/07/06 00:40:58;;;;;;;4.20;3.70;;;23.80;77.00;;;;;;5118145;28;20022;-92
2021/07/06 00:43:24;;;;;;;5.25;3.72;;;23.90;77.00;;;;;;5099971;28;20038;-91
2021/07/06 00:45:53;;;;;;;4.30;3.90;;;23.90;77.00;;;;;;5117681;28;20031;-91
2021/07/06 00:48:19;;;;;;;3.80;3.40;;;23.80;76.90;;;;;;5099613;28;20031;-92
2021/07/06 00:50:45;;;;;;;4.85;3.63;;;23.80;77.00;;;;;;5119199;28;20272;-91
2021/07/06 00:53:11;;;;;;;4.15;3.70;;;23.80;76.90;;;;;;5099182;28;20031;-92
2021/07/06 00:55:36;;;;;;;4.30;3.83;;;23.80;77.70;;;;;;5098962;28;20032;-92
2021/07/06 00:58:02;;;;;;;5.07;3.85;;;23.80;77.20;;;;;;5117612;28;20031;-93
2021/07/06 01:00:28;;;;;;;4.40;3.83;;;23.80;77.30;;;;;;5098992;28;20028;-91
2021/07/06 01:02:54;;;;;;;4.30;3.90;;;23.80;77.40;;;;;;5107599;28;20035;-92
2021/07/06 01:05:25;;;;;;;5.60;3.95;;;23.80;77.50;;;;;;5116227;28;20058;-90
2021/07/06 01:07:51;;;;;;;4.47;3.97;;;23.80;77.60;;;;;;5117845;28;20102;-93
2021/07/06 01:10:17;;;;;;;4.53;3.67;;;23.80;77.50;;;;;;5098947;28;20073;-93
2021/07/06 01:12:45;;;;;;;4.60;4.10;;;23.80;77.50;;;;;;5117534;28;20027;-92
2021/07/06 01:15:17;;;;;;;4.50;4.10;;;23.80;77.60;;;;;;5117442;28;20027;-93
2021/07/06 01:17:44;;;;;;;4.07;3.67;;;23.80;77.90;;;;;;5117694;28;20023;-93
2021/07/06 01:20:15;;;;;;;4.07;3.67;;;23.80;77.50;;;;;;5099065;28;20020;-93
2021/07/06 01:22:44;;;;;;;4.68;3.80;;;23.80;77.50;;;;;;5099149;28;20028;-92
2021/07/06 01:25:11;;;;;;;4.47;3.90;;;23.80;77.50;;;;;;5116917;28;20016;-92
2021/07/06 01:27:38;;;;;;;4.55;3.85;;;23.80;77.60;;;;;;5098503;28;20028;-92
2021/07/06 01:30:11;;;;;;;5.47;4.07;;;23.80;77.60;;;;;;5098792;28;20038;-92
2021/07/06 01:32:42;;;;;;;4.82;4.10;;;23.80;77.70;;;;;;5102099;28;20062;-92
2021/07/06 01:35:10;;;;;;;5.40;4.43;;;23.80;77.90;;;;;;5101560;28;20122;-92
2021/07/06 01:37:41;;;;;;;4.30;3.90;;;23.70;77.70;;;;;;5098529;28;20068;-93
2021/07/06 01:40:07;;;;;;;5.13;4.15;;;23.70;77.70;;;;;;5097817;28;20028;-93
2021/07/06 01:42:33;;;;;;;5.03;4.10;;;23.70;77.80;;;;;;5098799;28;20020;-93
2021/07/06 01:45:05;;;;;;;5.75;4.40;;;23.70;77.90;;;;;;5098680;28;20066;-93
2021/07/06 01:47:31;;;;;;;6.22;5.00;;;23.70;78.60;;;;;;5117054;28;20026;-93
2021/07/06 01:49:57;;;;;;;5.10;4.20;;;23.60;78.00;;;;;;5116513;28;20051;-92
2021/07/06 01:52:22;;;;;;;6.25;4.70;;;23.60;78.00;;;;;;5098243;28;20053;-92
2021/07/06 01:54:48;;;;;;;6.07;4.90;;;23.60;78.10;;;;;;5098262;28;20038;-92
2021/07/06 01:57:14;;;;;;;6.57;4.88;;;23.60;78.20;;;;;;5116616;28;20019;-92
2021/07/06 01:59:40;;;;;;;5.63;4.65;;;23.60;78.30;;;;;;5116953;28;20098;-91
2021/07/06 02:02:06;;;;;;;5.25;4.63;;;23.60;78.40;;;;;;5102487;28;20027;-90
2021/07/06 02:04:32;;;;;;;4.68;4.15;;;23.50;78.30;;;;;;5130047;28;20073;-92
2021/07/06 02:06:57;;;;;;;5.25;4.38;;;23.50;78.40;;;;;;5097643;28;20366;-92
2021/07/06 02:09:23;;;;;;;5.25;4.70;;;23.50;78.50;;;;;;5097935;28;20024;-92
2021/07/06 02:11:49;;;;;;;5.43;4.45;;;23.50;78.60;;;;;;5106579;28;20015;-92
2021/07/06 02:14:16;;;;;;;5.85;4.63;;;23.50;78.60;;;;;;5137427;28;20044;-90
2021/07/06 02:16:42;;;;;;;5.20;4.50;;;23.50;78.70;;;;;;5105975;28;20027;-92
2021/07/06 02:19:09;;;;;;;4.68;3.90;;;23.50;78.80;;;;;;5097598;28;20072;-92
2021/07/06 02:21:34;;;;;;;5.22;4.25;;;23.50;78.80;;;;;;5098054;28;20024;-93
2021/07/06 02:24:00;;;;;;;6.28;4.68;;;23.50;78.80;;;;;;5098206;28;20031;-92
2021/07/06 02:26:26;;;;;;;5.65;4.28;;;23.50;78.90;;;;;;5116017;28;20473;-91
2021/07/06 02:28:51;;;;;;;5.38;4.63;;;23.50;78.90;;;;;;5115396;28;20069;-93
2021/07/06 02:31:17;;;;;;;6.40;4.93;;;23.50;79.10;;;;;;5115877;28;20023;-92
2021/07/06 02:33:43;;;;;;;8.02;5.00;;;23.50;79.20;;;;;;5120953;28;20031;-92
2021/07/06 02:36:09;;;;;;;5.50;4.43;;;23.40;79.10;;;;;;5126206;28;20081;-92
2021/07/06 02:38:37;;;;;;;5.32;4.55;;;23.50;79.10;;;;;;5116411;28;20024;-93
2021/07/06 02:41:03;;;;;;;5.00;4.30;;;23.50;79.20;;;;;;5116246;28;20107;-92
2021/07/06 02:43:29;;;;;;;5.07;4.15;;;23.50;79.20;;;;;;5121142;28;20078;-90
2021/07/06 02:45:55;;;;;;;4.75;4.15;;;23.50;79.20;;;;;;5121406;28;20085;-91
2021/07/06 02:48:20;;;;;;;4.90;4.30;;;23.50;79.20;;;;;;5100193;28;20023;-92
2021/07/06 02:50:46;;;;;;;4.88;4.38;;;23.50;79.30;;;;;;5093342;28;20047;-90
2021/07/06 02:53:12;;;;;;;4.63;3.95;;;23.50;79.30;;;;;;5095258;28;20039;-93
2021/07/06 02:55:39;;;;;;;5.03;4.40;;;23.50;79.20;;;;;;5093906;28;20036;-92
2021/07/06 02:58:05;;;;;;;5.25;4.53;;;23.50;79.40;;;;;;5093675;28;20028;-92
2021/07/06 03:00:32;;;;;;;5.53;4.55;;;23.40;79.40;;;;;;5093438;28;20028;-92
2021/07/06 03:03:05;;;;;;;5.85;4.43;;;23.40;79.50;;;;;;5096890;28;20118;-92
2021/07/06 03:05:32;;;;;;;5.15;4.60;;;23.40;80.00;;;;;;5103976;28;20378;-93
2021/07/06 03:07:59;;;;;;;5.60;4.85;;;23.40;79.90;;;;;;5094107;28;20161;-93
2021/07/06 03:10:31;;;;;;;6.15;5.10;;;23.40;79.90;;;;;;5094851;28;20486;-92
2021/07/06 03:12:57;;;;;;;5.13;4.60;;;23.40;80.20;;;;;;5095408;28;20044;-93
2021/07/06 03:15:26;;;;;;;4.85;4.35;;;23.40;79.90;;;;;;5093946;28;20028;-93
2021/07/06 03:17:52;;;;;;;4.43;4.03;;;23.40;80.00;;;;;;5095057;28;20031;-92
2021/07/06 03:20:20;;;;;;;5.68;4.63;;;23.40;79.90;;;;;;5094672;28;20126;-93
2021/07/06 03:22:46;;;;;;;15.77;5.55;;;23.30;80.10;;;;;;5093980;28;20390;-91
2021/07/06 03:25:15;;;;;;;5.15;4.38;;;23.30;80.00;;;;;;5100564;28;20111;-92
2021/07/06 03:27:41;;;;;;;7.18;4.50;;;23.30;80.20;;;;;;5097930;28;20502;-92
2021/07/06 03:30:17;;;;;;;5.28;4.60;;;23.30;80.40;;;;;;5098248;28;20020;-93
2021/07/06 03:32:44;;;;;;;5.85;4.78;;;23.30;80.30;;;;;;5101491;28;20046;-91
2021/07/06 03:36:23;;;;;;;;;;;;;;;;;;;;;
2021/07/06 03:38:39;;;;;;;5.38;4.78;;;23.30;81.20;;;;;;5073793;28;20126;-93
2021/07/06 03:41:04;;;;;;;5.22;4.72;;;23.30;80.40;;;;;;5079901;28;20060;-93
2021/07/06 03:43:30;;;;;;;5.65;4.47;;;23.30;80.30;;;;;;5077455;28;20119;-93
2021/07/06 03:45:56;;;;;;;5.30;4.65;;;23.40;80.40;;;;;;5077884;28;20029;-93
2021/07/06 03:48:21;;;;;;;6.75;4.68;;;23.40;80.40;;;;;;5077377;28;20111;-93
2021/07/06 03:50:47;;;;;;;5.30;4.75;;;23.40;80.30;;;;;;5076514;28;20513;-93
2021/07/06 03:53:13;;;;;;;6.45;4.80;;;23.40;80.40;;;;;;5077359;28;20024;-93
2021/07/06 03:55:39;;;;;;;6.32;5.00;;;23.40;80.40;;;;;;5076962;28;20381;-92
2021/07/06 03:58:04;;;;;;;5.28;4.68;;;23.40;80.40;;;;;;5076584;28;20025;-94
2021/07/06 04:00:30;;;;;;;6.25;5.10;;;23.40;80.50;;;;;;5076352;28;20033;-92
2021/07/06 04:02:57;;;;;;;5.47;4.75;;;23.40;80.60;;;;;;5093558;28;20382;-90
2021/07/06 04:05:23;;;;;;;6.28;5.13;;;23.40;80.70;;;;;;5085673;28;20032;-90
2021/07/06 04:07:49;;;;;;;6.03;5.18;;;23.40;80.80;;;;;;5081039;28;20116;-93
2021/07/06 04:10:16;;;;;;;6.18;4.93;;;23.40;80.80;;;;;;5076435;28;20042;-92
2021/07/06 04:12:43;;;;;;;7.90;5.13;;;23.50;81.20;;;;;;5076267;28;20068;-92
2021/07/06 04:15:12;;;;;;;6.65;5.65;;;23.50;80.70;;;;;;5076195;28;20043;-92
2021/07/06 04:17:39;;;;;;;6.13;5.47;;;23.60;80.70;;;;;;5076286;28;20115;-92
2021/07/06 04:20:07;;;;;;;7.35;4.93;;;23.60;80.50;;;;;;5075904;28;20374;-92
2021/07/06 04:22:33;;;;;;;6.85;5.43;;;23.70;80.50;;;;;;5059367;28;20027;-90
2021/07/06 04:24:59;;;;;;;7.07;5.40;;;23.70;80.40;;;;;;5089563;28;20036;-91
2021/07/06 04:27:24;;;;;;;8.10;5.10;;;23.70;80.40;;;;;;5096395;28;20027;-91
2021/07/06 04:29:51;;;;;;;7.57;5.13;;;23.80;80.30;;;;;;5096871;28;20028;-91
2021/07/06 04:32:18;;;;;;;6.80;5.25;;;23.80;80.10;;;;;;5096171;28;20373;-91
2021/07/06 04:34:44;;;;;;;6.22;5.05;;;23.90;80.10;;;;;;5102814;28;20024;-90
2021/07/06 04:37:11;;;;;;;5.82;5.13;;;24.00;80.00;;;;;;5104828;28;20028;-92
2021/07/06 04:39:37;;;;;;;6.32;5.35;;;24.10;79.90;;;;;;5096319;28;20028;-92
2021/07/06 04:42:03;;;;;;;6.03;5.43;;;24.10;79.80;;;;;;5097866;28;20027;-92
2021/07/06 04:44:29;;;;;;;5.45;4.82;;;24.20;79.50;;;;;;5098358;28;20038;-93
2021/07/06 04:46:55;;;;;;;5.43;4.60;;;24.20;79.20;;;;;;5097334;28;20058;-93
2021/07/06 04:49:20;;;;;;;5.75;4.85;;;24.30;79.40;;;;;;5095960;28;20051;-93
2021/07/06 04:51:46;;;;;;;6.13;5.28;;;24.30;79.20;;;;;;5095623;28;20032;-92
2021/07/06 04:54:12;;;;;;;5.68;5.00;;;24.40;78.90;;;;;;5097523;28;20423;-92
2021/07/06 04:56:38;;;;;;;6.50;5.50;;;24.50;78.70;;;;;;5095351;28;20471;-92
2021/07/06 04:59:03;;;;;;;5.93;5.32;;;24.50;78.50;;;;;;5095828;28;20016;-92
2021/07/06 05:01:33;;;;;;;5.75;5.15;;;24.60;78.40;;;;;;5097559;28;20016;-92
2021/07/06 05:03:59;;;;;;;6.40;5.67;;;24.70;78.40;;;;;;5097604;28;20039;-90
2021/07/06 05:06:25;;;;;;;6.18;5.40;;;24.70;78.00;;;;;;5104618;28;20246;-91
2021/07/06 05:08:51;;;;;;;5.65;4.80;;;24.80;77.70;;;;;;5098264;28;20027;-92
2021/07/06 05:11:17;;;;;;;6.45;5.53;;;24.90;77.70;;;;;;5096697;28;20455;-92
2021/07/06 05:13:43;;;;;;;7.10;5.10;;;24.90;77.30;;;;;;5096457;28;20481;-92
2021/07/06 05:16:10;;;;;;;5.45;4.95;;;25.10;77.40;;;;;;5103241;28;20028;-91
2021/07/06 05:18:35;;;;;;;6.07;5.47;;;25.10;77.00;;;;;;5104664;28;20024;-92
2021/07/06 05:21:01;;;;;;;8.02;5.75;;;25.10;76.60;;;;;;5107151;28;20031;-92
2021/07/06 05:23:30;;;;;;;6.00;5.40;;;25.20;76.40;;;;;;5111885;28;20041;-88
2021/07/06 05:25:58;;;;;;;5.38;4.80;;;25.20;76.30;;;;;;5110917;28;20099;-89
2021/07/06 05:28:25;;;;;;;6.13;5.53;;;25.30;76.20;;;;;;5111487;28;20035;-89
2021/07/06 05:30:51;;;;;;;7.50;5.97;;;25.40;76.00;;;;;;5101240;28;20050;-90
2021/07/06 05:33:17;;;;;;;6.85;6.15;;;25.40;75.80;;;;;;5107465;28;20024;-92
2021/07/06 05:35:42;;;;;;;6.93;5.90;;;25.40;75.60;;;;;;5103029;28;20020;-91
2021/07/06 05:38:08;;;;;;;6.57;5.80;;;25.50;75.80;;;;;;5093279;28;20039;-92
2021/07/06 05:40:40;;;;;;;6.25;5.65;;;25.50;75.70;;;;;;5095079;28;20020;-92
2021/07/06 05:43:09;;;;;;;6.20;5.60;;;25.60;75.60;;;;;;5096266;28;20511;-91
2021/07/06 05:45:36;;;;;;;6.40;5.70;;;25.80;75.40;;;;;;5083675;28;20085;-90
2021/07/06 05:48:05;;;;;;;6.57;5.35;;;25.90;74.90;;;;;;5074264;28;20032;-91
2021/07/06 05:50:31;;;;;;;7.20;6.50;;;26.00;74.50;;;;;;5093784;28;20489;-91
2021/07/06 05:52:59;;;;;;;7.75;6.53;;;26.10;74.20;;;;;;5094353;28;20279;-91
2021/07/06 05:55:33;;;;;;;8.75;6.60;;;26.10;73.80;;;;;;5095925;28;20020;-92
2021/07/06 05:58:02;;;;;;;9.93;7.00;;;26.20;73.50;;;;;;5093125;28;20043;-93
2021/07/06 06:00:28;;;;;;;8.05;6.68;;;26.10;73.50;;;;;;5094467;28;20023;-92
2021/07/06 06:02:53;;;;;;;8.85;7.25;;;26.10;73.50;;;;;;5093165;28;20016;-91
2021/07/06 06:05:19;;;;;;;7.30;6.43;;;26.10;73.60;;;;;;5093992;28;20028;-92
2021/07/06 06:07:46;;;;;;;6.88;6.18;;;26.10;73.40;;;;;;5090157;28;20048;-93
2021/07/06 06:10:12;;;;;;;7.47;6.72;;;26.20;73.40;;;;;;5083286;28;20478;-93
2021/07/06 06:12:38;;;;;;;7.40;6.05;;;26.20;73.10;;;;;;5082088;28;20036;-92
2021/07/06 06:15:06;;;;;;;7.57;6.32;;;26.20;73.10;;;;;;5084371;28;20032;-93
2021/07/06 06:17:32;;;;;;;6.95;6.00;;;26.20;73.10;;;;;;5093570;28;20024;-92
2021/07/06 06:19:58;;;;;;;8.18;6.88;;;26.20;73.10;;;;;;5093619;28;20458;-93
2021/07/06 06:22:24;;;;;;;7.35;6.40;;;26.20;73.10;;;;;;5093912;28;20363;-92
2021/07/06 06:24:50;;;;;;;8.57;6.70;;;26.30;73.10;;;;;;5093386;28;20032;-93
2021/07/06 06:27:19;;;;;;;8.18;6.63;;;26.40;73.10;;;;;;5093703;28;20535;-92
2021/07/06 06:29:45;;;;;;;7.93;6.20;;;26.40;73.10;;;;;;5093736;28;20519;-92
2021/07/06 06:32:11;;;;;;;7.85;7.05;;;26.60;73.00;;;;;;5094506;28;20027;-92
2021/07/06 06:34:39;;;;;;;7.88;7.03;;;26.70;72.60;;;;;;5093498;28;20027;-91
2021/07/06 06:37:05;;;;;;;7.80;6.50;;;26.80;72.20;;;;;;5104736;28;20024;-91
2021/07/06 06:39:31;;;;;;;8.13;6.18;;;26.80;72.10;;;;;;5094698;28;20107;-92
2021/07/06 06:41:56;;;;;;;7.07;6.38;;;26.80;72.10;;;;;;5093234;28;20027;-94
2021/07/06 06:44:29;;;;;;;7.05;6.20;;;26.90;72.10;;;;;;5094718;28;20077;-94
2021/07/06 06:46:54;;;;;;;6.90;5.85;;;27.00;71.70;;;;;;5094183;28;20077;-92
2021/07/06 06:49:20;;;;;;;6.93;6.07;;;27.00;71.70;;;;;;5098899;28;20039;-93
2021/07/06 06:51:46;;;;;;;6.75;5.63;;;27.10;71.70;;;;;;5093307;28;20489;-93
2021/07/06 06:54:12;;;;;;;6.53;5.72;;;27.20;71.60;;;;;;5092426;28;20114;-93
2021/07/06 06:56:40;;;;;;;6.25;5.50;;;27.40;71.30;;;;;;5096663;28;20051;-93
2021/07/06 06:59:07;;;;;;;8.05;6.55;;;27.50;71.10;;;;;;5087688;28;20042;-91
2021/07/06 07:01:39;;;;;;;8.35;6.75;;;27.50;70.70;;;;;;5113889;28;20024;-93
2021/07/06 07:04:05;;;;;;;8.80;6.72;;;27.60;70.40;;;;;;5112830;28;20103;-91
2021/07/06 07:06:35;;;;;;;9.13;6.82;;;27.60;70.40;;;;;;5106057;28;20055;-92
2021/07/06 07:09:03;;;;;;;9.57;6.80;;;27.60;69.80;;;;;;5116900;28;20454;-93
2021/07/06 07:11:29;;;;;;;9.68;6.82;;;27.60;69.90;;;;;;5093893;28;20034;-92
2021/07/06 07:13:55;;;;;;;7.63;6.57;;;27.60;69.80;;;;;;5096141;28;20020;-93
2021/07/06 07:16:20;;;;;;;8.27;6.72;;;27.60;69.50;;;;;;5096355;28;20530;-92
2021/07/06 07:18:46;;;;;;;14.90;12.60;;;27.60;69.50;;;;;;5114832;28;20104;-90
2021/07/06 07:21:12;;;;;;;19.88;16.88;;;27.60;69.60;;;;;;5097180;28;20024;-90
2021/07/06 07:23:38;;;;;;;12.32;10.75;;;27.70;69.30;;;;;;5118046;28;20023;-92
2021/07/06 07:26:04;;;;;;;10.10;8.82;;;27.90;69.30;;;;;;5106278;28;20019;-91
2021/07/06 07:28:29;;;;;;;9.93;8.32;;;28.00;69.40;;;;;;5104774;28;20020;-89
2021/07/06 07:30:56;;;;;;;8.20;7.25;;;28.10;68.50;;;;;;5105731;28;20045;-89
2021/07/06 07:33:21;;;;;;;7.55;6.63;;;28.30;68.50;;;;;;5095903;28;20028;-89
2021/07/06 07:35:47;;;;;;;7.95;6.40;;;28.50;67.80;;;;;;5096405;28;20378;-89
2021/07/06 07:38:13;;;;;;;6.93;5.72;;;28.60;67.40;;;;;;5095173;28;20025;-89
2021/07/06 07:40:39;;;;;;;6.80;6.10;;;28.70;67.20;;;;;;5101361;28;20050;-88
2021/07/06 07:43:07;;;;;;;6.30;5.70;;;28.90;67.00;;;;;;5097433;28;20047;-89
2021/07/06 07:45:37;;;;;;;6.72;5.50;;;29.00;66.70;;;;;;5093673;28;20049;-87
2021/07/06 07:48:03;;;;;;;;;;;29.10;66.20;;;;;;5112625;28;20088;-87
2021/07/06 07:50:29;;;;;;;7.82;6.35;;;29.10;65.30;;;;;;5102544;28;20396;-89
2021/07/06 07:52:55;;;;;;;8.27;6.65;;;29.20;66.00;;;;;;5092730;28;20019;-90
2021/07/06 07:55:21;;;;;;;6.85;6.15;;;29.20;65.50;;;;;;5102610;28;20470;-88
2021/07/06 07:57:47;;;;;;;6.68;5.70;;;29.20;65.50;;;;;;5095478;28;20024;-89
2021/07/06 08:00:15;;;;;;;6.68;5.97;;;29.30;65.50;;;;;;5113840;28;20138;-88
2021/07/06 08:02:41;;;;;;;7.13;5.97;;;29.40;65.50;;;;;;5093718;28;20035;-89
2021/07/06 08:05:07;;;;;;;7.25;6.22;;;29.50;65.30;;;;;;5095946;28;20032;-89
2021/07/06 08:07:33;;;;;;;7.10;6.38;;;29.60;65.20;;;;;;5095188;28;20047;-88
2021/07/06 08:09:59;;;;;;;10.27;7.07;;;29.70;64.90;;;;;;5109493;28;20045;-88
2021/07/06 08:12:24;;;;;;;9.25;6.15;;;29.80;64.60;;;;;;5097684;28;20126;-88
2021/07/06 08:14:51;;;;;;;7.28;6.05;;;29.70;64.30;;;;;;5096507;28;20070;-90
2021/07/06 08:17:18;;;;;;;6.93;5.57;;;29.80;64.30;;;;;;5111647;28;20030;-91
2021/07/06 08:19:44;;;;;;;6.18;5.57;;;29.80;64.20;;;;;;5117478;28;20023;-90
2021/07/06 08:22:10;;;;;;;7.78;5.25;;;29.80;64.30;;;;;;5118480;28;20024;-91
2021/07/06 08:24:35;;;;;;;7.05;5.93;;;29.90;64.60;;;;;;5118067;28;20426;-92
2021/07/06 08:27:04;;;;;;;6.90;5.80;;;30.10;65.00;;;;;;5099286;28;20373;-92
2021/07/06 08:29:31;;;;;;;7.43;6.15;;;30.20;64.90;;;;;;5101460;28;20028;-92
2021/07/06 08:31:58;;;;;;;5.70;5.10;;;30.30;64.90;;;;;;5095647;28;20020;-92
2021/07/06 08:34:24;;;;;;;7.13;5.68;;;30.60;65.50;;;;;;5099572;28;20035;-91
2021/07/06 08:36:50;;;;;;;6.85;6.00;;;30.90;65.20;;;;;;5103269;28;20531;-90
2021/07/06 08:39:16;;;;;;;6.03;5.30;;;31.20;64.50;;;;;;5103570;28;20031;-89
2021/07/06 08:41:42;;;;;;;52.00;43.85;;;31.40;64.00;;;;;;5108418;28;20024;-91
2021/07/06 08:44:07;;;;;;;20.20;18.08;;;31.70;63.40;;;;;;5117542;28;20051;-88
2021/07/06 08:46:37;;;;;;;12.35;11.05;;;31.90;63.00;;;;;;5100023;28;20051;-92
2021/07/06 08:49:05;;;;;;;9.73;8.20;;;32.10;62.00;;;;;;5098694;28;20484;-91
2021/07/06 08:51:34;;;;;;;8.15;6.90;;;32.40;62.40;;;;;;5100043;28;20082;-90
2021/07/06 08:54:00;;;;;;;7.40;5.97;;;32.60;61.40;;;;;;5096360;28;20023;-93
2021/07/06 08:56:25;;;;;;;6.07;4.80;;;32.80;60.30;;;;;;5099364;28;20748;-92
2021/07/06 08:58:54;;;;;;;6.05;4.97;;;32.90;59.90;;;;;;5099498;28;20099;-92
2021/07/06 09:01:29;;;;;;;4.97;4.28;;;33.00;59.70;;;;;;5110398;28;20020;-92
2021/07/06 09:03:56;;;;;;;5.63;4.57;;;33.20;57.70;;;;;;5098617;28;20029;-93
2021/07/06 09:06:24;;;;;;;5.43;4.50;;;33.30;58.80;;;;;;5105563;28;20048;-92
2021/07/06 09:08:53;;;;;;;5.00;4.28;;;33.50;58.20;;;;;;5102349;28;20027;-93
2021/07/06 09:11:21;;;;;;;4.68;4.18;;;33.70;57.90;;;;;;5098378;28;20097;-91
2021/07/06 09:13:48;;;;;;;5.38;4.30;;;33.80;57.10;;;;;;5116067;28;20334;-91
2021/07/06 09:16:22;;;;;;;5.95;4.50;;;33.90;56.50;;;;;;5098316;28;20039;-93
2021/07/06 09:18:49;;;;;;;5.68;4.50;;;33.90;55.60;;;;;;5098257;28;20026;-92
2021/07/06 09:21:15;;;;;;;5.45;4.95;;;33.90;55.70;;;;;;5097657;28;20046;-92
2021/07/06 09:23:48;;;;;;;6.72;4.80;;;34.00;55.40;;;;;;5097996;28;20055;-93
2021/07/06 09:26:25;;;;;;;6.47;4.75;;;34.10;54.60;;;;;;5096019;28;20028;-93
2021/07/06 09:28:54;;;;;;;6.57;4.63;;;34.10;54.40;;;;;;5097871;28;20020;-93
2021/07/06 09:31:37;;;;;;;5.38;4.45;;;34.10;54.20;;;;;;5099733;28;20484;-91
2021/07/06 09:34:13;;;;;;;5.65;4.57;;;34.10;51.70;;;;;;5097286;28;20031;-92
2021/07/06 09:36:40;;;;;;;5.75;4.40;;;34.00;52.40;;;;;;5099592;28;20034;-91
2021/07/06 09:39:12;;;;;;;4.72;4.10;;;34.00;54.10;;;;;;5105900;28;20027;-90
2021/07/06 09:41:42;;;;;;;6.30;4.30;;;34.30;53.00;;;;;;5099318;28;20126;-92
2021/07/06 09:44:35;;;;;;;5.05;4.53;;;34.50;53.40;;;;;;5108001;28;20119;-92
2021/07/06 09:47:04;;;;;;;15.15;13.63;;;34.60;49.20;;;;;;5092652;28;20032;-91
2021/07/06 09:49:33;;;;;;;7.53;6.22;;;34.70;53.00;;;;;;5079668;28;20481;-92
2021/07/06 09:52:08;;;;;;;5.57;4.97;;;34.90;52.60;;;;;;5094933;28;20028;-92
2021/07/06 09:54:36;;;;;;;6.03;4.63;;;35.10;51.50;;;;;;5094540;28;20440;-91
2021/07/06 09:57:27;;;;;;;4.53;4.13;;;35.10;52.00;;;;;;5093548;28;20032;-92
2021/07/06 09:59:58;;;;;;;4.57;4.00;;;35.30;50.00;;;;;;5095981;28;20020;-90
2021/07/06 10:02:27;;;;;;;4.82;3.83;;;35.50;52.00;;;;;;5097457;28;20480;-92
2021/07/06 10:04:58;;;;;;;3.55;3.17;;;35.90;51.40;;;;;;5097209;28;20028;-93
2021/07/06 10:07:26;;;;;;;3.85;3.45;;;36.10;51.00;;;;;;5103232;28;20031;-91
2021/07/06 10:09:53;;;;;;;5.47;3.50;;;36.20;50.50;;;;;;5100756;28;20066;-92
2021/07/06 10:12:21;;;;;;;4.07;3.38;;;36.30;49.90;;;;;;5101884;28;20076;-92
2021/07/06 10:14:48;;;;;;;4.90;3.67;;;36.30;50.00;;;;;;5100410;28;20036;-91
2021/07/06 10:17:15;;;;;;;5.20;3.80;;;36.30;49.70;;;;;;5102029;28;20027;-92
2021/07/06 10:19:42;;;;;;;4.15;3.75;;;36.10;49.00;;;;;;5119046;28;20028;-91
2021/07/06 10:22:12;;;;;;;4.78;3.40;;;35.90;49.10;;;;;;5115503;28;20432;-90
2021/07/06 10:24:41;;;;;;;15.15;13.57;;;35.80;49.30;;;;;;5097011;28;20023;-88
2021/07/06 10:27:12;;;;;;;27.52;23.90;;;35.80;49.60;;;;;;5097331;28;20027;-93
2021/07/06 10:29:41;;;;;;;10.00;8.65;;;35.90;49.60;;;;;;5099303;28;20019;-92
2021/07/06 10:32:07;;;;;;;6.45;5.85;;;36.10;49.10;;;;;;5096903;28;20035;-92
2021/07/06 10:34:46;;;;;;;4.88;4.28;;;36.20;48.90;;;;;;5115228;28;20027;-94
2021/07/06 10:37:29;;;;;;;;;;;36.30;46.90;;;;;;5117347;28;20023;-92
2021/07/06 10:39:55;;;;;;;3.58;3.10;;;36.20;46.30;;;;;;5097850;28;20387;-93
2021/07/06 10:42:38;;;;;;;4.47;3.13;;;36.40;49.00;;;;;;5097153;28;20423;-92
2021/07/06 10:45:18;;;;;;;2.92;2.72;;;36.70;44.40;;;;;;5077514;28;20035;-92
2021/07/06 10:47:52;;;;;;;2.92;2.72;;;36.70;43.60;;;;;;5121072;28;20024;-91
2021/07/06 10:50:25;;;;;;;4.45;3.10;;;36.70;45.60;;;;;;5102824;28;20055;-91
2021/07/06 10:53:13;;;;;;;2.95;2.65;;;36.80;46.00;;;;;;5095197;28;20028;-91
2021/07/06 10:55:40;;;;;;;4.18;2.78;;;36.80;44.60;;;;;;5091206;28;20040;-92
2021/07/06 10:58:06;;;;;;;2.95;2.58;;;36.70;45.90;;;;;;5113424;28;20028;-91
2021/07/06 11:00:45;;;;;;;3.55;2.60;;;36.70;45.80;;;;;;5102207;28;20031;-92
2021/07/06 11:03:18;;;;;;;4.68;2.90;;;36.80;44.80;;;;;;5106877;28;20378;-90
2021/07/06 11:05:45;;;;;;;3.25;2.45;;;36.60;45.00;;;;;;5107016;28;20015;-90
2021/07/06 11:08:39;;;;;;;3.45;2.70;;;36.70;45.80;;;;;;5111628;28;20050;-90
2021/07/06 11:11:05;;;;;;;3.00;2.70;;;37.00;44.30;;;;;;5098774;28;20043;-91
2021/07/06 11:13:32;;;;;;;2.58;2.30;;;37.00;45.50;;;;;;5096790;28;20067;-92
2021/07/06 11:16:01;;;;;;;3.33;2.50;;;37.20;45.20;;;;;;5099024;28;20028;-91
2021/07/06 11:18:41;;;;;;;6.40;2.47;;;37.30;44.80;;;;;;5104616;28;20023;-90
2021/07/06 11:21:31;;;;;;;2.60;2.40;;;37.40;44.40;;;;;;5101988;28;20530;-92
2021/07/06 11:24:11;;;;;;;2.78;2.55;;;37.30;42.50;;;;;;5108127;28;20103;-89
2021/07/06 11:26:44;;;;;;;2.70;2.45;;;37.30;43.30;;;;;;5094142;28;20030;-89
2021/07/06 11:29:09;;;;;;;3.10;2.38;;;37.20;44.20;;;;;;5111145;28;20103;-88
2021/07/06 11:31:35;;;;;;;3.17;2.50;;;37.30;44.60;;;;;;5095319;28;20395;-87
2021/07/06 11:34:04;;;;;;;4.85;2.30;;;37.40;44.20;;;;;;5095623;28;20110;-88
2021/07/06 11:36:30;;;;;;;3.10;2.33;;;37.30;43.70;;;;;;5090710;28;20081;-87
2021/07/06 11:38:57;;;;;;;12.40;10.77;;;36.80;43.60;;;;;;5114341;28;20031;-88
2021/07/06 11:41:26;;;;;;;6.38;5.30;;;36.50;44.30;;;;;;5096557;28;20031;-89
2021/07/06 11:43:52;;;;;;;4.20;3.63;;;36.30;44.20;;;;;;5114914;28;20028;-89
2021/07/06 11:46:19;;;;;;;3.35;3.00;;;35.90;44.40;;;;;;5118066;28;20024;-89
2021/07/06 11:48:51;;;;;;;4.13;2.78;;;35.50;44.80;;;;;;5100564;28;20028;-89
2021/07/06 11:51:19;;;;;;;2.80;2.50;;;35.20;45.40;;;;;;5121911;28;20044;-89
2021/07/06 11:53:55;;;;;;;4.22;2.80;;;34.90;45.80;;;;;;5100965;28;20028;-90
2021/07/06 11:56:26;;;;;;;4.68;2.75;;;34.90;46.50;;;;;;5097659;28;20166;-88
2021/07/06 11:58:55;;;;;;;5.00;2.33;;;35.00;46.20;;;;;;5093368;28;20028;-88
2021/07/06 12:01:22;;;;;;;3.33;2.43;;;35.00;45.90;;;;;;5110056;28;20020;-90
2021/07/06 12:03:47;;;;;;;3.47;2.40;;;34.70;46.00;;;;;;5099981;28;20256;-90
2021/07/06 12:06:16;;;;;;;4.10;2.40;;;34.40;46.20;;;;;;5077705;28;20028;-90
2021/07/06 12:08:46;;;;;;;3.97;2.15;;;34.10;46.70;;;;;;5078189;28;20027;-91
2021/07/06 12:11:34;;;;;;;4.32;2.60;;;34.00;47.80;;;;;;5093901;28;20024;-91
2021/07/06 12:14:02;;;;;;;4.85;2.85;;;34.50;47.40;;;;;;5094576;28;20055;-91
2021/07/06 12:16:37;;;;;;;3.40;2.70;;;35.10;47.70;;;;;;5077296;28;20024;-90
2021/07/06 12:19:09;;;;;;;4.22;2.70;;;35.70;47.10;;;;;;5077542;28;20016;-90
2021/07/06 12:21:40;;;;;;;4.72;2.80;;;36.20;47.00;;;;;;5095835;28;20470;-90
2021/07/06 12:24:07;;;;;;;3.38;3.08;;;36.70;45.70;;;;;;5105607;28;20087;-89
2021/07/06 12:26:38;;;;;;;5.03;2.60;;;36.70;45.10;;;;;;5096879;28;20043;-91
2021/07/06 12:29:04;;;;;;;3.50;2.70;;;36.60;44.70;;;;;;5079220;28;20024;-90
2021/07/06 12:31:33;;;;;;;3.63;2.72;;;36.80;45.00;;;;;;5078773;28;20561;-91
2021/07/06 12:34:06;;;;;;;3.53;2.47;;;37.10;44.70;;;;;;5079060;28;20081;-90
2021/07/06 12:36:37;;;;;;;4.20;2.42;;;37.30;43.70;;;;;;5078890;28;20028;-91
2021/07/06 12:39:37;;;;;;;3.83;2.38;;;37.40;43.50;;;;;;5079011;28;20024;-90
2021/07/06 12:42:12;;;;;;;3.13;2.40;;;37.50;42.80;;;;;;5081402;28;20035;-90
2021/07/06 12:44:38;;;;;;;3.10;2.50;;;37.50;42.50;;;;;;5085058;28;20028;-89
2021/07/06 12:47:15;;;;;;;2.92;2.40;;;37.40;43.00;;;;;;5100002;28;20028;-90
2021/07/06 12:49:46;;;;;;;3.08;2.40;;;37.00;42.40;;;;;;5079947;28;20493;-90
2021/07/06 12:52:12;;;;;;;4.93;2.83;;;36.30;43.20;;;;;;5081085;28;20028;-90
2021/07/06 12:54:40;;;;;;;5.65;2.83;;;35.50;44.20;;;;;;5103979;28;20059;-91